sensor_id;sensor_type;location;lat;lon;timestamp;P1;durP1;ratioP1;P2;durP2;ratioP2
11037;SDS011;5572;49.540;11.932;2023-04-25T00:01:20;30.23;;;28.10;;
11037;SDS011;5572;49.540;11.932;2023-04-25T00:03:46;31.57;;;29.20;;
11037;SDS011;5572;49.540;11.932;2023-04-25T00:06:13;28.30;;;26.27;;
11037;SDS011;5572;49.540;11.932;2023-04-25T00:08:40;27.83;;;25.80;;
11037;SDS011;5572;49.540;11.932;2023-04-25T00:11:06;27.43;;;25.57;;
11037;SDS011;5572;49.540;11.932;2023-04-25T00:13:35;27.63;;;25.67;;
11037;SDS011;5572;49.540;11.932;2023-04-25T00:16:01;28.17;;;26.00;;
11037;SDS011;5572;49.540;11.932;2023-04-25T00:18:29;27.70;;;25.60;;
11037;SDS011;5572;49.540;11.932;2023-04-25T00:20:58;29.50;;;27.27;;
11037;SDS011;5572;49.540;11.932;2023-04-25T00:23:25;31.77;;;29.40;;
11037;SDS011;5572;49.540;11.932;2023-04-25T00:25:51;29.63;;;27.40;;
11037;SDS011;5572;49.540;11.932;2023-04-25T00:28:18;31.93;;;29.40;;
11037;SDS011;5572;49.540;11.932;2023-04-25T00:30:46;30.70;;;28.37;;
11037;SDS011;5572;49.540;11.932;2023-04-25T00:33:13;35.60;;;32.70;;
11037;SDS011;5572;49.540;11.932;2023-04-25T00:35:40;29.17;;;26.90;;
11037;SDS011;5572;49.540;11.932;2023-04-25T00:38:06;28.00;;;25.97;;
11037;SDS011;5572;49.540;11.932;2023-04-25T00:40:33;28.20;;;26.03;;
11037;SDS011;5572;49.540;11.932;2023-04-25T00:43:00;32.80;;;30.23;;
11037;SDS011;5572;49.540;11.932;2023-04-25T00:45:27;30.23;;;27.87;;
11037;SDS011;5572;49.540;11.932;2023-04-25T00:47:57;30.33;;;28.00;;
11037;SDS011;5572;49.540;11.932;2023-04-25T00:50:24;30.83;;;28.57;;
11037;SDS011;5572;49.540;11.932;2023-04-25T00:52:51;27.63;;;25.63;;
11037;SDS011;5572;49.540;11.932;2023-04-25T00:55:18;30.30;;;27.87;;
11037;SDS011;5572;49.540;11.932;2023-04-25T00:57:45;29.07;;;26.93;;
11037;SDS011;5572;49.540;11.932;2023-04-25T01:00:13;30.37;;;27.93;;
11037;SDS011;5572;49.540;11.932;2023-04-25T01:02:40;30.17;;;27.93;;
11037;SDS011;5572;49.540;11.932;2023-04-25T01:05:09;29.00;;;26.77;;
11037;SDS011;5572;49.540;11.932;2023-04-25T01:07:37;29.73;;;27.50;;
11037;SDS011;5572;49.540;11.932;2023-04-25T01:10:04;30.13;;;27.80;;
11037;SDS011;5572;49.540;11.932;2023-04-25T01:12:32;30.17;;;27.77;;
11037;SDS011;5572;49.540;11.932;2023-04-25T01:14:59;29.10;;;26.83;;
11037;SDS011;5572;49.540;11.932;2023-04-25T01:17:26;31.77;;;29.23;;
11037;SDS011;5572;49.540;11.932;2023-04-25T01:19:52;28.27;;;26.17;;
11037;SDS011;5572;49.540;11.932;2023-04-25T01:22:21;31.47;;;29.10;;
11037;SDS011;5572;49.540;11.932;2023-04-25T01:24:48;29.20;;;27.03;;
11037;SDS011;5572;49.540;11.932;2023-04-25T01:27:15;32.50;;;29.90;;
11037;SDS011;5572;49.540;11.932;2023-04-25T01:29:41;28.93;;;26.70;;
11037;SDS011;5572;49.540;11.932;2023-04-25T01:32:09;29.50;;;27.23;;
11037;SDS011;5572;49.540;11.932;2023-04-25T01:34:36;29.90;;;27.43;;
11037;SDS011;5572;49.540;11.932;2023-04-25T01:37:02;28.27;;;26.10;;
11037;SDS011;5572;49.540;11.932;2023-04-25T01:39:30;29.80;;;27.47;;
11037;SDS011;5572;49.540;11.932;2023-04-25T01:41:58;27.60;;;25.37;;
11037;SDS011;5572;49.540;11.932;2023-04-25T01:44:25;28.33;;;26.07;;
11037;SDS011;5572;49.540;11.932;2023-04-25T01:46:52;29.27;;;27.03;;
11037;SDS011;5572;49.540;11.932;2023-04-25T01:49:19;28.80;;;26.57;;
11037;SDS011;5572;49.540;11.932;2023-04-25T01:51:46;29.80;;;27.50;;
11037;SDS011;5572;49.540;11.932;2023-04-25T01:54:13;29.70;;;27.50;;
11037;SDS011;5572;49.540;11.932;2023-04-25T01:56:41;28.03;;;25.87;;
11037;SDS011;5572;49.540;11.932;2023-04-25T01:59:07;29.27;;;27.03;;
11037;SDS011;5572;49.540;11.932;2023-04-25T02:01:34;29.00;;;26.77;;
11037;SDS011;5572;49.540;11.932;2023-04-25T02:04:01;30.53;;;28.17;;
11037;SDS011;5572;49.540;11.932;2023-04-25T02:06:27;31.73;;;29.27;;
11037;SDS011;5572;49.540;11.932;2023-04-25T02:08:55;29.17;;;26.97;;
11037;SDS011;5572;49.540;11.932;2023-04-25T02:11:22;30.87;;;28.53;;
11037;SDS011;5572;49.540;11.932;2023-04-25T02:13:50;31.80;;;29.37;;
11037;SDS011;5572;49.540;11.932;2023-04-25T02:16:17;30.43;;;28.03;;
11037;SDS011;5572;49.540;11.932;2023-04-25T02:18:44;31.43;;;28.63;;
11037;SDS011;5572;49.540;11.932;2023-04-25T02:21:11;32.37;;;29.77;;
11037;SDS011;5572;49.540;11.932;2023-04-25T02:23:37;29.33;;;27.07;;
11037;SDS011;5572;49.540;11.932;2023-04-25T02:26:04;28.57;;;26.30;;
11037;SDS011;5572;49.540;11.932;2023-04-25T02:28:31;28.87;;;26.53;;
11037;SDS011;5572;49.540;11.932;2023-04-25T02:30:59;28.77;;;26.47;;
11037;SDS011;5572;49.540;11.932;2023-04-25T02:33:26;30.33;;;27.90;;
11037;SDS011;5572;49.540;11.932;2023-04-25T02:35:52;29.57;;;27.23;;
11037;SDS011;5572;49.540;11.932;2023-04-25T02:38:19;30.67;;;28.40;;
11037;SDS011;5572;49.540;11.932;2023-04-25T02:40:46;31.00;;;28.60;;
11037;SDS011;5572;49.540;11.932;2023-04-25T02:43:12;37.40;;;34.50;;
11037;SDS011;5572;49.540;11.932;2023-04-25T02:45:39;29.50;;;27.27;;
11037;SDS011;5572;49.540;11.932;2023-04-25T02:48:07;30.57;;;28.20;;
11037;SDS011;5572;49.540;11.932;2023-04-25T02:50:33;31.93;;;29.47;;
11037;SDS011;5572;49.540;11.932;2023-04-25T02:53:00;32.97;;;30.10;;
11037;SDS011;5572;49.540;11.932;2023-04-25T02:55:26;28.93;;;26.50;;
11037;SDS011;5572;49.540;11.932;2023-04-25T02:57:53;29.53;;;27.20;;
11037;SDS011;5572;49.540;11.932;2023-04-25T03:00:20;30.47;;;28.07;;
11037;SDS011;5572;49.540;11.932;2023-04-25T03:02:47;28.13;;;25.80;;
11037;SDS011;5572;49.540;11.932;2023-04-25T03:05:15;33.77;;;31.03;;
11037;SDS011;5572;49.540;11.932;2023-04-25T03:07:42;30.07;;;27.60;;
11037;SDS011;5572;49.540;11.932;2023-04-25T03:10:09;28.10;;;26.00;;
11037;SDS011;5572;49.540;11.932;2023-04-25T03:12:36;30.27;;;27.90;;
11037;SDS011;5572;49.540;11.932;2023-04-25T03:15:03;30.03;;;27.63;;
11037;SDS011;5572;49.540;11.932;2023-04-25T03:17:31;28.47;;;26.17;;
11037;SDS011;5572;49.540;11.932;2023-04-25T03:19:57;30.20;;;27.80;;
11037;SDS011;5572;49.540;11.932;2023-04-25T03:22:25;32.97;;;30.40;;
11037;SDS011;5572;49.540;11.932;2023-04-25T03:24:52;30.37;;;28.13;;
11037;SDS011;5572;49.540;11.932;2023-04-25T03:27:18;29.83;;;27.40;;
11037;SDS011;5572;49.540;11.932;2023-04-25T03:29:45;29.87;;;27.40;;
11037;SDS011;5572;49.540;11.932;2023-04-25T03:32:11;29.43;;;27.10;;
11037;SDS011;5572;49.540;11.932;2023-04-25T03:34:38;31.53;;;29.00;;
11037;SDS011;5572;49.540;11.932;2023-04-25T03:37:05;28.93;;;26.63;;
11037;SDS011;5572;49.540;11.932;2023-04-25T03:39:32;30.97;;;28.53;;
11037;SDS011;5572;49.540;11.932;2023-04-25T03:41:59;28.37;;;26.20;;
11037;SDS011;5572;49.540;11.932;2023-04-25T03:44:26;32.67;;;30.03;;
11037;SDS011;5572;49.540;11.932;2023-04-25T03:46:52;30.63;;;28.20;;
11037;SDS011;5572;49.540;11.932;2023-04-25T03:49:19;31.33;;;28.80;;
11037;SDS011;5572;49.540;11.932;2023-04-25T03:51:45;31.90;;;29.37;;
11037;SDS011;5572;49.540;11.932;2023-04-25T03:54:12;29.20;;;26.87;;
11037;SDS011;5572;49.540;11.932;2023-04-25T03:56:40;31.63;;;29.20;;
11037;SDS011;5572;49.540;11.932;2023-04-25T03:59:06;27.47;;;25.37;;
11037;SDS011;5572;49.540;11.932;2023-04-25T04:01:33;28.60;;;26.33;;
11037;SDS011;5572;49.540;11.932;2023-04-25T04:04:00;29.00;;;26.63;;
11037;SDS011;5572;49.540;11.932;2023-04-25T04:06:26;30.97;;;28.50;;
11037;SDS011;5572;49.540;11.932;2023-04-25T04:08:53;29.00;;;26.67;;
11037;SDS011;5572;49.540;11.932;2023-04-25T04:11:20;27.93;;;25.77;;
11037;SDS011;5572;49.540;11.932;2023-04-25T04:13:48;32.40;;;29.93;;
11037;SDS011;5572;49.540;11.932;2023-04-25T04:16:14;27.10;;;25.00;;
11037;SDS011;5572;49.540;11.932;2023-04-25T04:18:41;28.80;;;26.50;;
11037;SDS011;5572;49.540;11.932;2023-04-25T04:21:07;35.07;;;32.43;;
11037;SDS011;5572;49.540;11.932;2023-04-25T04:23:34;32.67;;;30.03;;
11037;SDS011;5572;49.540;11.932;2023-04-25T04:26:01;31.03;;;28.60;;
11037;SDS011;5572;49.540;11.932;2023-04-25T04:28:27;29.87;;;27.43;;
11037;SDS011;5572;49.540;11.932;2023-04-25T04:30:56;32.63;;;30.10;;
11037;SDS011;5572;49.540;11.932;2023-04-25T04:33:22;30.33;;;27.93;;
11037;SDS011;5572;49.540;11.932;2023-04-25T04:35:50;30.10;;;27.73;;
11037;SDS011;5572;49.540;11.932;2023-04-25T04:38:18;33.70;;;31.10;;
11037;SDS011;5572;49.540;11.932;2023-04-25T04:40:46;30.37;;;27.93;;
11037;SDS011;5572;49.540;11.932;2023-04-25T04:43:13;36.37;;;33.43;;
11037;SDS011;5572;49.540;11.932;2023-04-25T04:45:42;28.83;;;26.50;;
11037;SDS011;5572;49.540;11.932;2023-04-25T04:48:10;29.03;;;26.87;;
11037;SDS011;5572;49.540;11.932;2023-04-25T04:50:39;30.90;;;28.50;;
11037;SDS011;5572;49.540;11.932;2023-04-25T04:53:06;29.63;;;27.27;;
11037;SDS011;5572;49.540;11.932;2023-04-25T04:55:33;26.87;;;24.83;;
11037;SDS011;5572;49.540;11.932;2023-04-25T04:57:59;27.87;;;25.63;;
11037;SDS011;5572;49.540;11.932;2023-04-25T05:00:26;29.43;;;26.97;;
11037;SDS011;5572;49.540;11.932;2023-04-25T05:02:54;27.27;;;25.20;;
11037;SDS011;5572;49.540;11.932;2023-04-25T05:05:22;32.63;;;30.20;;
11037;SDS011;5572;49.540;11.932;2023-04-25T05:07:48;29.20;;;26.97;;
11037;SDS011;5572;49.540;11.932;2023-04-25T05:10:16;27.50;;;25.37;;
11037;SDS011;5572;49.540;11.932;2023-04-25T05:12:42;28.23;;;26.10;;
11037;SDS011;5572;49.540;11.932;2023-04-25T05:15:09;30.73;;;28.43;;
11037;SDS011;5572;49.540;11.932;2023-04-25T05:17:40;28.50;;;26.20;;
11037;SDS011;5572;49.540;11.932;2023-04-25T05:20:15;28.97;;;26.60;;
11037;SDS011;5572;49.540;11.932;2023-04-25T05:22:47;27.57;;;25.40;;
11037;SDS011;5572;49.540;11.932;2023-04-25T05:25:20;32.27;;;29.60;;
11037;SDS011;5572;49.540;11.932;2023-04-25T05:27:47;30.77;;;28.30;;
11037;SDS011;5572;49.540;11.932;2023-04-25T05:30:20;27.33;;;25.33;;
11037;SDS011;5572;49.540;11.932;2023-04-25T05:32:46;28.03;;;25.77;;
11037;SDS011;5572;49.540;11.932;2023-04-25T05:35:13;29.47;;;26.97;;
11037;SDS011;5572;49.540;11.932;2023-04-25T05:37:41;31.70;;;29.23;;
11037;SDS011;5572;49.540;11.932;2023-04-25T05:40:10;31.87;;;29.47;;
11037;SDS011;5572;49.540;11.932;2023-04-25T05:42:53;32.13;;;29.50;;
11037;SDS011;5572;49.540;11.932;2023-04-25T05:45:56;30.43;;;28.10;;
11037;SDS011;5572;49.540;11.932;2023-04-25T05:48:22;27.30;;;25.13;;
11037;SDS011;5572;49.540;11.932;2023-04-25T05:51:03;30.10;;;27.70;;
11037;SDS011;5572;49.540;11.932;2023-04-25T05:53:30;30.50;;;28.07;;
11037;SDS011;5572;49.540;11.932;2023-04-25T05:59:20;31.93;;;29.07;;
11037;SDS011;5572;49.540;11.932;2023-04-25T06:01:47;28.87;;;26.57;;
11037;SDS011;5572;49.540;11.932;2023-04-25T06:04:14;29.70;;;27.40;;
11037;SDS011;5572;49.540;11.932;2023-04-25T06:06:41;27.33;;;25.17;;
11037;SDS011;5572;49.540;11.932;2023-04-25T06:09:07;30.20;;;27.77;;
11037;SDS011;5572;49.540;11.932;2023-04-25T06:11:34;27.67;;;25.47;;
11037;SDS011;5572;49.540;11.932;2023-04-25T06:14:01;29.40;;;27.07;;
11037;SDS011;5572;49.540;11.932;2023-04-25T06:16:29;28.90;;;26.63;;
11037;SDS011;5572;49.540;11.932;2023-04-25T06:18:55;28.53;;;26.07;;
11037;SDS011;5572;49.540;11.932;2023-04-25T06:21:22;26.80;;;24.60;;
11037;SDS011;5572;49.540;11.932;2023-04-25T06:23:49;29.73;;;27.27;;
11037;SDS011;5572;49.540;11.932;2023-04-25T06:26:17;30.30;;;27.73;;
11037;SDS011;5572;49.540;11.932;2023-04-25T06:28:57;29.90;;;27.57;;
11037;SDS011;5572;49.540;11.932;2023-04-25T06:31:24;26.83;;;24.60;;
11037;SDS011;5572;49.540;11.932;2023-04-25T06:33:53;28.67;;;26.40;;
11037;SDS011;5572;49.540;11.932;2023-04-25T06:36:34;30.37;;;27.80;;
11037;SDS011;5572;49.540;11.932;2023-04-25T06:39:03;31.87;;;29.27;;
11037;SDS011;5572;49.540;11.932;2023-04-25T06:41:30;30.00;;;27.50;;
11037;SDS011;5572;49.540;11.932;2023-04-25T06:43:56;29.63;;;27.13;;
11037;SDS011;5572;49.540;11.932;2023-04-25T06:46:23;28.07;;;25.67;;
11037;SDS011;5572;49.540;11.932;2023-04-25T06:48:50;27.10;;;24.93;;
11037;SDS011;5572;49.540;11.932;2023-04-25T06:51:18;28.60;;;26.23;;
11037;SDS011;5572;49.540;11.932;2023-04-25T06:53:44;27.90;;;25.73;;
11037;SDS011;5572;49.540;11.932;2023-04-25T06:56:11;27.90;;;25.77;;
11037;SDS011;5572;49.540;11.932;2023-04-25T06:58:38;36.87;;;33.33;;
11037;SDS011;5572;49.540;11.932;2023-04-25T07:01:04;31.20;;;28.63;;
11037;SDS011;5572;49.540;11.932;2023-04-25T07:03:31;29.00;;;26.73;;
11037;SDS011;5572;49.540;11.932;2023-04-25T07:05:57;28.97;;;26.70;;
11037;SDS011;5572;49.540;11.932;2023-04-25T07:08:26;30.90;;;28.47;;
11037;SDS011;5572;49.540;11.932;2023-04-25T07:10:52;29.40;;;27.13;;
11037;SDS011;5572;49.540;11.932;2023-04-25T07:13:19;30.30;;;28.07;;
11037;SDS011;5572;49.540;11.932;2023-04-25T07:15:46;31.90;;;29.53;;
11037;SDS011;5572;49.540;11.932;2023-04-25T07:18:13;28.93;;;26.80;;
11037;SDS011;5572;49.540;11.932;2023-04-25T07:20:40;28.20;;;26.10;;
11037;SDS011;5572;49.540;11.932;2023-04-25T07:23:06;34.60;;;31.77;;
11037;SDS011;5572;49.540;11.932;2023-04-25T07:25:34;29.50;;;27.37;;
11037;SDS011;5572;49.540;11.932;2023-04-25T07:28:01;31.40;;;29.10;;
11037;SDS011;5572;49.540;11.932;2023-04-25T07:30:28;30.97;;;28.63;;
11037;SDS011;5572;49.540;11.932;2023-04-25T07:32:54;34.73;;;32.10;;
11037;SDS011;5572;49.540;11.932;2023-04-25T07:35:21;31.73;;;28.53;;
11037;SDS011;5572;49.540;11.932;2023-04-25T07:37:48;31.30;;;28.83;;
11037;SDS011;5572;49.540;11.932;2023-04-25T07:40:15;29.20;;;26.97;;
11037;SDS011;5572;49.540;11.932;2023-04-25T07:42:43;32.60;;;29.90;;
11037;SDS011;5572;49.540;11.932;2023-04-25T07:45:10;27.50;;;25.33;;
11037;SDS011;5572;49.540;11.932;2023-04-25T07:47:36;29.83;;;27.47;;
11037;SDS011;5572;49.540;11.932;2023-04-25T07:50:04;28.20;;;25.93;;
11037;SDS011;5572;49.540;11.932;2023-04-25T07:52:31;32.17;;;29.63;;
11037;SDS011;5572;49.540;11.932;2023-04-25T07:54:58;30.53;;;28.10;;
11037;SDS011;5572;49.540;11.932;2023-04-25T07:57:25;30.03;;;27.70;;
11037;SDS011;5572;49.540;11.932;2023-04-25T07:59:53;29.83;;;27.30;;
11037;SDS011;5572;49.540;11.932;2023-04-25T08:02:19;29.87;;;27.50;;
11037;SDS011;5572;49.540;11.932;2023-04-25T08:04:46;32.23;;;29.67;;
11037;SDS011;5572;49.540;11.932;2023-04-25T08:07:14;31.83;;;29.27;;
11037;SDS011;5572;49.540;11.932;2023-04-25T08:09:41;31.90;;;29.33;;
11037;SDS011;5572;49.540;11.932;2023-04-25T08:12:07;32.53;;;29.90;;
11037;SDS011;5572;49.540;11.932;2023-04-25T08:14:34;32.43;;;29.77;;
11037;SDS011;5572;49.540;11.932;2023-04-25T08:17:07;28.13;;;26.03;;
11037;SDS011;5572;49.540;11.932;2023-04-25T08:19:35;29.77;;;27.53;;
11037;SDS011;5572;49.540;11.932;2023-04-25T09:29:29;35.50;;;32.77;;
11037;SDS011;5572;49.540;11.932;2023-04-25T09:32:13;32.63;;;30.07;;
11037;SDS011;5572;49.540;11.932;2023-04-25T09:34:43;36.20;;;33.37;;
11037;SDS011;5572;49.540;11.932;2023-04-25T09:37:16;35.03;;;32.30;;
11037;SDS011;5572;49.540;11.932;2023-04-25T09:39:44;34.37;;;31.57;;
11037;SDS011;5572;49.540;11.932;2023-04-25T09:42:11;33.53;;;30.93;;
11037;SDS011;5572;49.540;11.932;2023-04-25T09:44:38;33.13;;;30.47;;
11037;SDS011;5572;49.540;11.932;2023-04-25T09:47:09;32.10;;;29.67;;
11037;SDS011;5572;49.540;11.932;2023-04-25T09:49:38;29.90;;;27.73;;
11037;SDS011;5572;49.540;11.932;2023-04-25T09:52:06;33.33;;;30.67;;
11037;SDS011;5572;49.540;11.932;2023-04-25T09:54:33;34.73;;;32.20;;
11037;SDS011;5572;49.540;11.932;2023-04-25T09:56:59;33.83;;;31.37;;
11037;SDS011;5572;49.540;11.932;2023-04-25T10:02:57;34.67;;;32.13;;
11037;SDS011;5572;49.540;11.932;2023-04-25T10:05:28;33.57;;;31.10;;
11037;SDS011;5572;49.540;11.932;2023-04-25T10:07:58;203.40;;;62.50;;
11037;SDS011;5572;49.540;11.932;2023-04-25T10:10:25;325.37;;;77.93;;
11037;SDS011;5572;49.540;11.932;2023-04-25T10:12:53;327.50;;;78.00;;
11037;SDS011;5572;49.540;11.932;2023-04-25T10:15:20;333.23;;;84.97;;
11037;SDS011;5572;49.540;11.932;2023-04-25T10:17:48;340.13;;;82.53;;
11037;SDS011;5572;49.540;11.932;2023-04-25T10:20:17;332.40;;;80.60;;
11037;SDS011;5572;49.540;11.932;2023-04-25T10:22:44;204.40;;;59.23;;
11037;SDS011;5572;49.540;11.932;2023-04-25T10:25:13;34.00;;;31.53;;
11037;SDS011;5572;49.540;11.932;2023-04-25T10:27:41;33.10;;;30.60;;
11037;SDS011;5572;49.540;11.932;2023-04-25T10:30:08;35.50;;;32.87;;
11037;SDS011;5572;49.540;11.932;2023-04-25T10:32:37;190.00;;;56.40;;
11037;SDS011;5572;49.540;11.932;2023-04-25T10:35:11;31.80;;;29.50;;
11037;SDS011;5572;49.540;11.932;2023-04-25T10:40:31;83.43;;;40.27;;
11037;SDS011;5572;49.540;11.932;2023-04-25T10:45:58;31.77;;;29.37;;
11037;SDS011;5572;49.540;11.932;2023-04-25T10:48:26;201.20;;;57.43;;
11037;SDS011;5572;49.540;11.932;2023-04-25T10:51:06;29.90;;;27.87;;
11037;SDS011;5572;49.540;11.932;2023-04-25T10:53:36;199.43;;;57.80;;
11037;SDS011;5572;49.540;11.932;2023-04-25T10:56:09;32.77;;;30.50;;
11037;SDS011;5572;49.540;11.932;2023-04-25T10:58:36;35.60;;;32.60;;
11037;SDS011;5572;49.540;11.932;2023-04-25T11:01:08;35.33;;;32.63;;
11037;SDS011;5572;49.540;11.932;2023-04-25T11:03:37;190.40;;;58.43;;
11037;SDS011;5572;49.540;11.932;2023-04-25T11:06:06;33.17;;;30.87;;
11037;SDS011;5572;49.540;11.932;2023-04-25T11:08:52;312.87;;;78.43;;
11037;SDS011;5572;49.540;11.932;2023-04-25T11:11:18;327.90;;;80.97;;
11037;SDS011;5572;49.540;11.932;2023-04-25T11:13:47;33.57;;;31.07;;
11037;SDS011;5572;49.540;11.932;2023-04-25T11:16:15;319.70;;;85.03;;
11037;SDS011;5572;49.540;11.932;2023-04-25T11:18:42;334.63;;;84.67;;
11037;SDS011;5572;49.540;11.932;2023-04-25T11:21:08;468.73;;;111.57;;
11037;SDS011;5572;49.540;11.932;2023-04-25T11:23:35;333.93;;;86.53;;
11037;SDS011;5572;49.540;11.932;2023-04-25T11:26:04;312.27;;;81.30;;
11037;SDS011;5572;49.540;11.932;2023-04-25T11:28:30;176.23;;;59.40;;
11037;SDS011;5572;49.540;11.932;2023-04-25T11:30:57;317.40;;;83.90;;
11037;SDS011;5572;49.540;11.932;2023-04-25T11:33:23;454.33;;;105.40;;
11037;SDS011;5572;49.540;11.932;2023-04-25T11:35:53;318.07;;;83.80;;
11037;SDS011;5572;49.540;11.932;2023-04-25T11:38:21;173.50;;;58.27;;
11037;SDS011;5572;49.540;11.932;2023-04-25T11:40:49;189.43;;;58.63;;
11037;SDS011;5572;49.540;11.932;2023-04-25T11:43:18;335.53;;;88.23;;
11037;SDS011;5572;49.540;11.932;2023-04-25T11:45:47;452.73;;;103.70;;
11037;SDS011;5572;49.540;11.932;2023-04-25T11:48:14;334.33;;;82.27;;
11037;SDS011;5572;49.540;11.932;2023-04-25T11:50:41;397.47;;;136.00;;
11037;SDS011;5572;49.540;11.932;2023-04-25T11:53:07;336.17;;;81.93;;
11037;SDS011;5572;49.540;11.932;2023-04-25T11:55:34;35.10;;;32.77;;
11037;SDS011;5572;49.540;11.932;2023-04-25T11:58:01;312.03;;;77.73;;
11037;SDS011;5572;49.540;11.932;2023-04-25T12:00:30;323.63;;;76.67;;
11037;SDS011;5572;49.540;11.932;2023-04-25T12:02:57;33.10;;;30.60;;
11037;SDS011;5572;49.540;11.932;2023-04-25T12:05:25;212.87;;;59.73;;
11037;SDS011;5572;49.540;11.932;2023-04-25T12:07:53;183.37;;;54.57;;
11037;SDS011;5572;49.540;11.932;2023-04-25T12:10:20;323.70;;;79.80;;
11037;SDS011;5572;49.540;11.932;2023-04-25T12:12:47;327.63;;;81.80;;
11037;SDS011;5572;49.540;11.932;2023-04-25T12:15:15;312.30;;;80.87;;
11037;SDS011;5572;49.540;11.932;2023-04-25T12:17:46;34.43;;;31.90;;
11037;SDS011;5572;49.540;11.932;2023-04-25T12:20:14;33.47;;;30.90;;
11037;SDS011;5572;49.540;11.932;2023-04-25T12:22:41;200.30;;;59.40;;
11037;SDS011;5572;49.540;11.932;2023-04-25T12:25:10;39.97;;;36.90;;
11037;SDS011;5572;49.540;11.932;2023-04-25T12:27:38;325.43;;;79.23;;
11037;SDS011;5572;49.540;11.932;2023-04-25T12:30:07;332.43;;;82.20;;
11037;SDS011;5572;49.540;11.932;2023-04-25T12:32:35;331.37;;;84.23;;
11037;SDS011;5572;49.540;11.932;2023-04-25T12:35:04;35.00;;;31.80;;
11037;SDS011;5572;49.540;11.932;2023-04-25T12:37:31;34.53;;;31.90;;
11037;SDS011;5572;49.540;11.932;2023-04-25T12:39:58;201.73;;;60.37;;
11037;SDS011;5572;49.540;11.932;2023-04-25T12:42:24;446.30;;;102.47;;
11037;SDS011;5572;49.540;11.932;2023-04-25T12:44:51;324.37;;;80.27;;
11037;SDS011;5572;49.540;11.932;2023-04-25T12:47:17;324.83;;;80.80;;
11037;SDS011;5572;49.540;11.932;2023-04-25T12:49:44;79.47;;;41.40;;
11037;SDS011;5572;49.540;11.932;2023-04-25T12:52:12;80.47;;;41.10;;
11037;SDS011;5572;49.540;11.932;2023-04-25T12:54:38;306.33;;;77.67;;
11037;SDS011;5572;49.540;11.932;2023-04-25T12:57:05;320.60;;;77.47;;
11037;SDS011;5572;49.540;11.932;2023-04-25T12:59:32;200.07;;;61.53;;
11037;SDS011;5572;49.540;11.932;2023-04-25T13:01:58;197.40;;;59.53;;
11037;SDS011;5572;49.540;11.932;2023-04-25T13:04:25;328.43;;;82.87;;
11037;SDS011;5572;49.540;11.932;2023-04-25T13:06:51;312.13;;;80.13;;
11037;SDS011;5572;49.540;11.932;2023-04-25T13:09:19;202.17;;;61.67;;
11037;SDS011;5572;49.540;11.932;2023-04-25T13:11:46;444.13;;;100.80;;
11037;SDS011;5572;49.540;11.932;2023-04-25T13:14:13;310.00;;;78.97;;
11037;SDS011;5572;49.540;11.932;2023-04-25T13:16:40;323.80;;;80.73;;
11037;SDS011;5572;49.540;11.932;2023-04-25T13:19:07;321.67;;;79.43;;
11037;SDS011;5572;49.540;11.932;2023-04-25T13:21:36;31.73;;;29.27;;
11037;SDS011;5572;49.540;11.932;2023-04-25T13:24:03;35.07;;;32.33;;
11037;SDS011;5572;49.540;11.932;2023-04-25T13:26:31;304.63;;;76.63;;
11037;SDS011;5572;49.540;11.932;2023-04-25T13:28:58;34.00;;;31.40;;
11037;SDS011;5572;49.540;11.932;2023-04-25T13:31:25;324.03;;;79.60;;
11037;SDS011;5572;49.540;11.932;2023-04-25T13:33:52;32.87;;;30.47;;
11037;SDS011;5572;49.540;11.932;2023-04-25T13:36:18;324.47;;;82.67;;
11037;SDS011;5572;49.540;11.932;2023-04-25T13:38:45;303.47;;;77.27;;
11037;SDS011;5572;49.540;11.932;2023-04-25T13:41:12;171.13;;;55.37;;
11037;SDS011;5572;49.540;11.932;2023-04-25T13:43:44;183.03;;;56.50;;
11037;SDS011;5572;49.540;11.932;2023-04-25T13:46:12;167.53;;;54.90;;
11037;SDS011;5572;49.540;11.932;2023-04-25T13:48:40;321.53;;;79.97;;
11037;SDS011;5572;49.540;11.932;2023-04-25T13:51:13;32.37;;;30.00;;
11037;SDS011;5572;49.540;11.932;2023-04-25T13:54:01;195.93;;;58.77;;
11037;SDS011;5572;49.540;11.932;2023-04-25T13:56:29;200.50;;;61.20;;
11037;SDS011;5572;49.540;11.932;2023-04-25T13:58:57;171.13;;;54.70;;
11037;SDS011;5572;49.540;11.932;2023-04-25T14:01:24;319.80;;;76.67;;
11037;SDS011;5572;49.540;11.932;2023-04-25T14:03:51;35.63;;;33.03;;
11037;SDS011;5572;49.540;11.932;2023-04-25T14:06:18;198.60;;;59.87;;
11037;SDS011;5572;49.540;11.932;2023-04-25T14:08:47;317.03;;;75.53;;
11037;SDS011;5572;49.540;11.932;2023-04-25T14:11:14;306.57;;;78.37;;
11037;SDS011;5572;49.540;11.932;2023-04-25T14:13:43;202.83;;;58.87;;
11037;SDS011;5572;49.540;11.932;2023-04-25T14:19:27;34.17;;;31.50;;
11037;SDS011;5572;49.540;11.932;2023-04-25T14:21:54;33.37;;;30.87;;
11037;SDS011;5572;49.540;11.932;2023-04-25T14:24:20;35.60;;;32.93;;
11037;SDS011;5572;49.540;11.932;2023-04-25T14:26:47;35.63;;;33.07;;
11037;SDS011;5572;49.540;11.932;2023-04-25T14:29:14;33.77;;;31.43;;
11037;SDS011;5572;49.540;11.932;2023-04-25T14:31:40;34.67;;;32.30;;
11037;SDS011;5572;49.540;11.932;2023-04-25T14:34:07;37.10;;;34.33;;
11037;SDS011;5572;49.540;11.932;2023-04-25T14:36:35;35.33;;;32.87;;
11037;SDS011;5572;49.540;11.932;2023-04-25T14:39:02;184.90;;;55.93;;
11037;SDS011;5572;49.540;11.932;2023-04-25T14:41:30;170.47;;;55.13;;
11037;SDS011;5572;49.540;11.932;2023-04-25T14:43:56;34.07;;;31.50;;
11037;SDS011;5572;49.540;11.932;2023-04-25T14:46:23;36.53;;;33.43;;
11037;SDS011;5572;49.540;11.932;2023-04-25T14:48:50;32.77;;;30.53;;
11037;SDS011;5572;49.540;11.932;2023-04-25T14:51:17;34.57;;;31.87;;
11037;SDS011;5572;49.540;11.932;2023-04-25T14:53:45;33.70;;;30.70;;
11037;SDS011;5572;49.540;11.932;2023-04-25T14:56:11;33.83;;;31.27;;
11037;SDS011;5572;49.540;11.932;2023-04-25T14:58:38;32.10;;;30.10;;
11037;SDS011;5572;49.540;11.932;2023-04-25T15:01:05;32.33;;;30.23;;
11037;SDS011;5572;49.540;11.932;2023-04-25T15:03:37;34.07;;;31.47;;
11037;SDS011;5572;49.540;11.932;2023-04-25T15:06:03;32.03;;;29.87;;
11037;SDS011;5572;49.540;11.932;2023-04-25T15:08:31;30.40;;;28.37;;
11037;SDS011;5572;49.540;11.932;2023-04-25T15:11:03;32.33;;;30.20;;
11037;SDS011;5572;49.540;11.932;2023-04-25T15:13:30;32.90;;;30.60;;
11037;SDS011;5572;49.540;11.932;2023-04-25T15:15:57;31.80;;;29.67;;
11037;SDS011;5572;49.540;11.932;2023-04-25T15:18:24;34.70;;;32.20;;
11037;SDS011;5572;49.540;11.932;2023-04-25T15:20:51;33.00;;;30.70;;
11037;SDS011;5572;49.540;11.932;2023-04-25T15:23:18;39.30;;;36.40;;
11037;SDS011;5572;49.540;11.932;2023-04-25T15:25:46;32.30;;;30.03;;
11037;SDS011;5572;49.540;11.932;2023-04-25T15:28:14;32.80;;;30.47;;
11037;SDS011;5572;49.540;11.932;2023-04-25T15:30:41;34.83;;;32.13;;
11037;SDS011;5572;49.540;11.932;2023-04-25T15:33:08;37.57;;;34.90;;
11037;SDS011;5572;49.540;11.932;2023-04-25T15:35:34;33.63;;;31.30;;
11037;SDS011;5572;49.540;11.932;2023-04-25T15:38:01;33.27;;;30.90;;
11037;SDS011;5572;49.540;11.932;2023-04-25T15:40:28;35.10;;;32.63;;
11037;SDS011;5572;49.540;11.932;2023-04-25T15:42:54;34.13;;;31.80;;
11037;SDS011;5572;49.540;11.932;2023-04-25T15:45:23;34.97;;;32.47;;